createdAt,value
2019-04-30T00:00:25.789Z,9.40
2019-04-30T00:01:25.142Z,9.46
2019-04-30T00:02:27.870Z,9.49
2019-04-30T00:03:25.582Z,9.39
2019-04-30T00:04:29.965Z,9.35
2019-04-30T00:05:25.788Z,9.32
2019-04-30T00:06:27.342Z,9.34
2019-04-30T00:07:27.121Z,9.32
2019-04-30T00:08:25.819Z,9.28
2019-04-30T00:09:26.554Z,9.34
2019-04-30T00:10:29.514Z,9.34
2019-04-30T00:11:27.831Z,9.27
2019-04-30T00:12:26.047Z,9.32
2019-04-30T00:13:26.197Z,9.31
2019-04-30T00:14:32.089Z,9.27
2019-04-30T00:15:29.089Z,9.34
2019-04-30T00:16:30.944Z,9.32
2019-04-30T00:17:27.889Z,9.32
2019-04-30T00:18:30.659Z,9.38
2019-04-30T00:19:28.265Z,9.32
2019-04-30T00:20:29.989Z,9.25
2019-04-30T00:21:29.642Z,9.21
2019-04-30T00:22:33.966Z,9.34
2019-04-30T00:23:30.937Z,9.38
2019-04-30T00:24:29.600Z,9.38
2019-04-30T00:25:29.087Z,9.38
2019-04-30T00:26:28.446Z,9.40
2019-04-30T00:27:30.274Z,9.42
2019-04-30T00:28:29.752Z,9.38
2019-04-30T00:29:30.951Z,9.45
2019-04-30T00:30:30.099Z,9.43
2019-04-30T00:31:29.198Z,9.38
2019-04-30T00:32:29.345Z,9.38
2019-04-30T00:33:29.563Z,9.40
2019-04-30T00:34:30.891Z,9.32
2019-04-30T00:35:31.816Z,9.27
2019-04-30T00:36:34.186Z,9.23
2019-04-30T00:37:32.222Z,9.23
2019-04-30T00:38:34.254Z,9.24
2019-04-30T00:39:31.712Z,9.30
2019-04-30T00:40:31.583Z,9.24
2019-04-30T00:41:31.581Z,9.18
2019-04-30T00:42:31.059Z,9.24
2019-04-30T00:43:32.078Z,9.25
2019-04-30T00:44:31.379Z,9.31
2019-04-30T00:45:32.089Z,9.30
2019-04-30T00:46:31.697Z,9.30
2019-04-30T00:47:31.820Z,9.30
2019-04-30T00:48:31.949Z,9.21
2019-04-30T00:49:32.086Z,9.27
2019-04-30T00:50:33.939Z,9.35
2019-04-30T00:51:35.303Z,9.38
2019-04-30T00:52:35.220Z,9.25
2019-04-30T00:53:35.794Z,9.16
2019-04-30T00:54:32.891Z,9.24
2019-04-30T00:55:33.099Z,9.20
2019-04-30T00:56:33.254Z,9.30
2019-04-30T00:57:38.832Z,9.21
2019-04-30T00:58:35.620Z,9.25
2019-04-30T00:59:35.102Z,9.30
2019-04-30T01:00:35.239Z,9.25
2019-04-30T01:01:39.266Z,9.18
2019-04-30T01:02:36.162Z,9.25
2019-04-30T01:03:39.348Z,9.32
2019-04-30T01:04:35.615Z,9.18
2019-04-30T01:05:39.526Z,9.28
2019-04-30T01:06:35.920Z,9.25
2019-04-30T01:07:40.079Z,9.35
2019-04-30T01:08:36.392Z,9.30
2019-04-30T01:09:39.551Z,9.25
2019-04-30T01:10:36.743Z,9.38
2019-04-30T01:11:39.759Z,9.24
2019-04-30T01:12:44.308Z,9.24
2019-04-30T01:13:41.426Z,9.20
2019-04-30T01:14:39.082Z,9.16
2019-04-30T01:15:39.067Z,9.21
2019-04-30T01:16:36.812Z,9.13
2019-04-30T01:17:38.237Z,9.30
2019-04-30T01:18:38.982Z,9.21
2019-04-30T01:19:39.612Z,9.31
2019-04-30T01:20:40.560Z,9.24
2019-04-30T01:21:46.528Z,9.25
2019-04-30T01:22:39.882Z,9.18
2019-04-30T01:23:41.821Z,9.20
2019-04-30T01:24:41.105Z,9.23
2019-04-30T01:25:38.864Z,9.20
2019-04-30T01:26:39.542Z,9.21
2019-04-30T01:27:39.445Z,9.20
2019-04-30T01:28:40.962Z,9.16
2019-04-30T01:29:44.149Z,9.09
2019-04-30T01:30:41.359Z,9.21
2019-04-30T01:31:40.802Z,9.12
2019-04-30T01:32:41.595Z,9.13
2019-04-30T01:33:39.953Z,9.04
2019-04-30T01:34:44.124Z,9.13
2019-04-30T01:35:41.283Z,9.16
2019-04-30T01:36:43.441Z,9.15
2019-04-30T01:37:42.570Z,9.24
2019-04-30T01:38:44.850Z,9.12
2019-04-30T01:39:42.611Z,9.15
2019-04-30T01:40:42.817Z,9.23
2019-04-30T01:41:44.097Z,9.27
2019-04-30T01:42:47.984Z,9.27
2019-04-30T01:43:43.599Z,9.21
2019-04-30T01:44:43.403Z,9.28
2019-04-30T01:45:44.103Z,9.23
2019-04-30T01:46:47.297Z,9.23
2019-04-30T01:47:44.311Z,9.35
2019-04-30T01:48:43.660Z,9.30
2019-04-30T01:49:44.948Z,9.24
2019-04-30T01:50:43.937Z,9.31
2019-04-30T01:51:43.041Z,9.32
2019-04-30T01:52:43.187Z,9.23
2019-04-30T01:53:44.842Z,9.30
2019-04-30T01:54:43.486Z,9.28
2019-04-30T01:55:43.649Z,9.16
2019-04-30T01:56:44.119Z,9.24
2019-04-30T01:57:44.604Z,9.15
2019-04-30T01:58:44.189Z,9.27
2019-04-30T01:59:44.318Z,9.27
2019-04-30T02:00:44.454Z,9.16
2019-04-30T02:01:45.605Z,9.27
2019-04-30T02:02:44.878Z,9.27
2019-04-30T02:03:45.027Z,9.18
2019-04-30T02:04:45.158Z,9.15
2019-04-30T02:05:46.100Z,9.12
2019-04-30T02:06:45.449Z,9.15
2019-04-30T02:07:46.049Z,9.16
2019-04-30T02:08:46.739Z,9.16
2019-04-30T02:09:45.965Z,9.15
2019-04-30T02:10:46.186Z,9.24
2019-04-30T02:11:46.446Z,9.20
2019-04-30T02:12:49.185Z,9.13
2019-04-30T02:13:46.728Z,9.10
2019-04-30T02:14:46.960Z,9.25
2019-04-30T02:15:49.051Z,9.20
2019-04-30T02:16:47.257Z,9.25
2019-04-30T02:17:50.266Z,9.16
2019-04-30T02:18:49.497Z,9.21
2019-04-30T02:19:56.567Z,9.23
2019-04-30T02:20:50.025Z,9.16
2019-04-30T02:21:49.216Z,9.18
2019-04-30T02:22:48.680Z,9.15
2019-04-30T02:23:49.573Z,9.21
2019-04-30T02:24:48.810Z,9.24
2019-04-30T02:25:49.180Z,9.28
2019-04-30T02:26:50.091Z,9.15
2019-04-30T02:27:49.305Z,9.16
2019-04-30T02:28:49.612Z,9.18
2019-04-30T02:29:50.534Z,9.23
2019-04-30T02:30:50.707Z,9.16
2019-04-30T02:31:50.896Z,9.18
2019-04-30T02:32:52.525Z,9.18
2019-04-30T02:33:50.415Z,9.15
2019-04-30T02:34:51.360Z,9.16
2019-04-30T02:35:51.151Z,9.23
2019-04-30T02:36:51.601Z,9.25
2019-04-30T02:37:50.934Z,9.21
2019-04-30T02:38:51.635Z,9.15
2019-04-30T02:39:51.381Z,9.23
2019-04-30T02:40:51.495Z,9.18
2019-04-30T02:41:51.626Z,9.20
2019-04-30T02:42:51.748Z,9.20
2019-04-30T02:43:52.129Z,9.20
2019-04-30T02:44:53.132Z,9.24
2019-04-30T02:45:53.109Z,9.18
2019-04-30T02:46:52.571Z,9.25
2019-04-30T02:47:52.801Z,9.16
2019-04-30T02:48:52.954Z,9.18
2019-04-30T02:49:53.647Z,9.16
2019-04-30T02:50:53.302Z,9.20
2019-04-30T02:51:53.436Z,9.09
2019-04-30T02:52:53.662Z,9.16
2019-04-30T02:53:53.905Z,9.10
2019-04-30T02:54:54.134Z,9.13
2019-04-30T02:55:54.251Z,9.09
2019-04-30T02:56:54.427Z,9.16
2019-04-30T02:57:54.503Z,9.02
2019-04-30T02:58:55.728Z,9.02
2019-04-30T02:59:55.121Z,8.99
2019-04-30T03:00:55.098Z,9.06
2019-04-30T03:01:55.233Z,9.04
2019-04-30T03:02:55.353Z,9.10
2019-04-30T03:03:56.114Z,8.97
2019-04-30T03:04:55.639Z,9.09
2019-04-30T03:05:55.765Z,9.05
2019-04-30T03:06:55.895Z,9.18
2019-04-30T03:07:56.014Z,9.10
2019-04-30T03:08:57.145Z,9.09
2019-04-30T03:09:56.360Z,9.13
2019-04-30T03:10:56.626Z,9.12
2019-04-30T03:11:56.611Z,9.21
2019-04-30T03:12:56.854Z,9.05
2019-04-30T03:13:59.270Z,8.99
2019-04-30T03:15:00.433Z,9.16
2019-04-30T03:15:59.317Z,9.10
2019-04-30T03:17:00.121Z,9.15
2019-04-30T03:18:00.669Z,9.12
2019-04-30T03:18:59.535Z,9.13
2019-04-30T03:20:03.126Z,9.12
2019-04-30T03:20:59.938Z,9.16
2019-04-30T03:22:00.328Z,9.13
2019-04-30T03:23:02.466Z,9.09
2019-04-30T03:24:00.652Z,9.12
2019-04-30T03:25:00.200Z,9.10
2019-04-30T03:25:59.795Z,8.99
2019-04-30T03:27:00.529Z,9.12
2019-04-30T03:28:00.301Z,9.04
2019-04-30T03:29:01.613Z,9.23
2019-04-30T03:30:00.257Z,9.13
2019-04-30T03:31:04.246Z,9.15
2019-04-30T03:32:03.289Z,8.99
2019-04-30T03:33:02.976Z,9.01
2019-04-30T03:34:25.458Z,8.97
2019-04-30T03:35:03.377Z,8.94
2019-04-30T03:36:02.845Z,8.93
2019-04-30T03:37:02.392Z,8.97
2019-04-30T03:38:02.135Z,8.93
2019-04-30T03:39:01.865Z,8.94
2019-04-30T03:40:02.096Z,8.94
2019-04-30T03:41:02.336Z,9.05
2019-04-30T03:42:03.122Z,9.18
2019-04-30T03:43:03.037Z,9.04
2019-04-30T03:44:17.090Z,9.06
2019-04-30T03:45:05.614Z,8.97
2019-04-30T03:46:03.293Z,8.93
2019-04-30T03:47:03.434Z,8.88
2019-04-30T03:48:04.137Z,8.94
2019-04-30T03:49:03.773Z,8.86
2019-04-30T03:50:03.900Z,8.91
2019-04-30T03:51:04.124Z,8.90
2019-04-30T03:52:05.123Z,8.86
2019-04-30T03:53:04.478Z,8.94
2019-04-30T03:54:04.623Z,8.97
2019-04-30T03:55:04.802Z,8.96
2019-04-30T03:56:05.621Z,9.04
2019-04-30T03:57:05.102Z,8.93
2019-04-30T03:58:05.229Z,8.91
2019-04-30T03:59:05.473Z,9.01
2019-04-30T04:00:05.598Z,8.99
2019-04-30T04:01:05.741Z,9.01
2019-04-30T04:02:12.284Z,8.88
2019-04-30T04:03:09.527Z,8.88
2019-04-30T04:04:06.237Z,8.99
2019-04-30T04:05:06.393Z,8.88
2019-04-30T04:06:09.402Z,8.96
2019-04-30T04:07:10.059Z,8.93
2019-04-30T04:08:09.583Z,8.88
2019-04-30T04:09:10.101Z,8.93
2019-04-30T04:10:09.887Z,8.97
2019-04-30T04:11:09.997Z,8.97
2019-04-30T04:12:11.853Z,8.84
2019-04-30T04:13:10.210Z,8.93
2019-04-30T04:14:09.298Z,8.90
2019-04-30T04:15:10.408Z,8.88
2019-04-30T04:16:09.732Z,8.88
2019-04-30T04:17:09.954Z,8.94
2019-04-30T04:18:10.598Z,8.99
2019-04-30T04:19:10.131Z,8.94
2019-04-30T04:20:10.749Z,8.90
2019-04-30T04:21:16.217Z,8.91
2019-04-30T04:22:12.395Z,8.86
2019-04-30T04:23:10.699Z,8.90
2019-04-30T04:24:10.727Z,8.91
2019-04-30T04:25:13.251Z,8.87
2019-04-30T04:26:11.276Z,8.90
2019-04-30T04:27:10.500Z,8.78
2019-04-30T04:28:11.126Z,8.76
2019-04-30T04:29:12.488Z,8.83
2019-04-30T04:30:12.121Z,8.78
2019-04-30T04:31:12.136Z,8.81
2019-04-30T04:32:11.363Z,8.83
2019-04-30T04:33:12.126Z,8.75
2019-04-30T04:34:11.716Z,8.81
2019-04-30T04:35:12.706Z,8.73
2019-04-30T04:36:13.639Z,8.73
2019-04-30T04:37:12.247Z,8.78
2019-04-30T04:38:13.137Z,8.90
2019-04-30T04:39:12.612Z,8.75
2019-04-30T04:40:12.751Z,8.79
2019-04-30T04:41:12.862Z,8.86
2019-04-30T04:42:12.985Z,8.87
2019-04-30T04:43:13.220Z,8.84
2019-04-30T04:44:13.375Z,8.81
2019-04-30T04:45:13.502Z,8.88
2019-04-30T04:46:13.645Z,8.87
2019-04-30T04:47:16.054Z,8.81
2019-04-30T04:48:14.934Z,8.83
2019-04-30T04:49:14.123Z,8.76
2019-04-30T04:50:14.339Z,8.84
2019-04-30T04:51:31.450Z,8.86
2019-04-30T04:52:15.782Z,8.81
2019-04-30T04:53:15.632Z,8.87
2019-04-30T04:54:15.106Z,8.86
2019-04-30T04:55:15.329Z,8.76
2019-04-30T04:56:15.584Z,8.78
2019-04-30T04:57:19.579Z,8.84
2019-04-30T04:58:21.569Z,8.83
2019-04-30T04:59:16.080Z,8.72
2019-04-30T05:00:16.324Z,8.78
2019-04-30T05:01:16.660Z,8.60
2019-04-30T05:02:19.475Z,8.66
2019-04-30T05:03:16.885Z,8.58
2019-04-30T05:04:19.724Z,8.60
2019-04-30T05:05:19.249Z,8.71
2019-04-30T05:06:21.255Z,8.68
2019-04-30T05:07:19.570Z,8.68
2019-04-30T05:08:18.582Z,8.68
2019-04-30T05:09:19.474Z,8.62
2019-04-30T05:10:19.310Z,8.72
2019-04-30T05:11:19.327Z,8.72
2019-04-30T05:12:19.314Z,8.75
2019-04-30T05:13:19.229Z,8.71
2019-04-30T05:14:19.646Z,8.71
2019-04-30T05:15:19.453Z,8.79
2019-04-30T05:16:20.657Z,8.76
2019-04-30T05:17:19.523Z,8.65
2019-04-30T05:18:22.779Z,8.65
2019-04-30T05:19:20.627Z,8.60
2019-04-30T05:20:19.836Z,8.63
2019-04-30T05:21:20.062Z,8.58
2019-04-30T05:22:20.318Z,8.72
2019-04-30T05:23:21.882Z,8.63
2019-04-30T05:24:21.584Z,8.63
2019-04-30T05:25:21.669Z,8.73
2019-04-30T05:26:22.823Z,8.75
2019-04-30T05:27:21.156Z,8.78
2019-04-30T05:28:21.283Z,8.73
2019-04-30T05:29:21.518Z,8.83
2019-04-30T05:30:22.139Z,8.69
2019-04-30T05:31:21.846Z,8.72
2019-04-30T05:32:22.079Z,8.57
2019-04-30T05:33:23.243Z,8.54
2019-04-30T05:34:23.140Z,8.50
2019-04-30T05:35:22.642Z,8.51
2019-04-30T05:36:22.773Z,8.53
2019-04-30T05:37:22.915Z,8.63
2019-04-30T05:38:23.091Z,8.72
2019-04-30T05:39:23.235Z,8.78
2019-04-30T05:40:23.349Z,8.96
2019-04-30T05:41:23.501Z,8.91
2019-04-30T05:42:23.739Z,8.86
2019-04-30T05:43:23.871Z,8.96
2019-04-30T05:44:23.993Z,8.88
2019-04-30T05:45:24.104Z,8.86
2019-04-30T05:46:24.335Z,8.91
2019-04-30T05:47:24.456Z,8.83
2019-04-30T05:48:24.726Z,8.87
2019-04-30T05:49:24.836Z,8.81
2019-04-30T05:50:25.638Z,8.72
2019-04-30T05:51:25.108Z,8.60
2019-04-30T05:52:25.257Z,8.72
2019-04-30T05:53:25.666Z,8.81
2019-04-30T05:54:25.536Z,8.84
2019-04-30T05:55:25.768Z,8.78
2019-04-30T05:56:25.910Z,8.81
2019-04-30T05:57:26.033Z,8.87
2019-04-30T05:58:26.657Z,8.88
2019-04-30T05:59:26.417Z,8.91
2019-04-30T06:00:30.279Z,8.88
2019-04-30T06:01:26.702Z,8.86
2019-04-30T06:02:30.634Z,8.87
2019-04-30T06:03:32.511Z,8.93
2019-04-30T06:04:29.480Z,8.84
2019-04-30T06:05:28.570Z,8.93
2019-04-30T06:06:29.002Z,8.91
2019-04-30T06:07:29.799Z,8.91
2019-04-30T06:08:29.222Z,8.88
2019-04-30T06:09:33.760Z,8.90
2019-04-30T06:10:29.495Z,8.81
2019-04-30T06:11:29.520Z,8.86
2019-04-30T06:12:29.166Z,8.79
2019-04-30T06:13:28.850Z,8.79
2019-04-30T06:14:29.127Z,8.78
2019-04-30T06:15:29.234Z,8.79
2019-04-30T06:16:30.143Z,8.83
2019-04-30T06:17:29.595Z,8.93
2019-04-30T06:18:30.656Z,8.94
2019-04-30T06:19:30.000Z,8.91
2019-04-30T06:20:30.251Z,8.96
2019-04-30T06:21:30.374Z,9.04
2019-04-30T06:22:30.502Z,9.10
2019-04-30T06:23:31.161Z,9.13
2019-04-30T06:24:30.873Z,9.15
2019-04-30T06:25:45.577Z,9.18
2019-04-30T06:26:33.128Z,9.20
2019-04-30T06:27:31.301Z,9.34
2019-04-30T06:28:31.510Z,9.46
2019-04-30T06:29:31.721Z,9.49
2019-04-30T06:30:32.173Z,9.48
2019-04-30T06:31:37.246Z,9.58
2019-04-30T06:32:34.304Z,9.50
2019-04-30T06:33:32.507Z,9.45
2019-04-30T06:34:32.625Z,9.53
2019-04-30T06:35:32.842Z,9.31
2019-04-30T06:36:33.652Z,9.34
2019-04-30T06:37:33.267Z,9.52
2019-04-30T06:38:33.387Z,9.50
2019-04-30T06:39:33.599Z,9.61
2019-04-30T06:40:33.750Z,9.60
2019-04-30T06:41:34.657Z,9.64
2019-04-30T06:42:34.001Z,9.56
2019-04-30T06:43:34.659Z,9.42
2019-04-30T06:44:37.377Z,9.30
2019-04-30T06:45:38.644Z,9.35
2019-04-30T06:46:34.636Z,9.30
2019-04-30T06:47:34.764Z,9.57
2019-04-30T06:48:34.896Z,9.52
2019-04-30T06:49:35.650Z,9.70
2019-04-30T06:50:35.245Z,9.70
2019-04-30T06:51:35.464Z,9.81
2019-04-30T06:52:35.617Z,9.66
2019-04-30T06:53:35.760Z,9.61
2019-04-30T06:54:36.659Z,9.58
2019-04-30T06:55:36.031Z,9.58
2019-04-30T06:56:38.720Z,9.49
2019-04-30T06:57:38.288Z,9.60
2019-04-30T06:58:39.180Z,9.73
2019-04-30T06:59:39.217Z,9.70
2019-04-30T07:00:36.872Z,9.82
2019-04-30T07:01:38.769Z,9.96
2019-04-30T07:02:39.168Z,9.91
2019-04-30T07:03:38.825Z,9.88
2019-04-30T07:04:37.587Z,9.97
2019-04-30T07:05:38.898Z,9.99
2019-04-30T07:06:44.008Z,9.97
2019-04-30T07:07:41.674Z,9.96
2019-04-30T07:08:42.798Z,9.83
2019-04-30T07:09:51.966Z,9.79
2019-04-30T07:10:52.940Z,9.73
2019-04-30T07:11:40.967Z,9.76
2019-04-30T07:12:40.165Z,9.75
2019-04-30T07:13:39.594Z,9.73
2019-04-30T07:14:41.953Z,9.71
2019-04-30T07:15:40.850Z,9.67
2019-04-30T07:16:39.953Z,9.70
2019-04-30T07:17:40.699Z,9.71
2019-04-30T07:18:41.341Z,9.81
2019-04-30T07:19:53.353Z,9.89
2019-04-30T07:20:42.755Z,9.88
2019-04-30T07:21:42.856Z,9.91
2019-04-30T07:22:50.084Z,10.00
2019-04-30T07:23:43.271Z,9.97
2019-04-30T07:24:41.495Z,9.91
2019-04-30T07:25:41.625Z,10.04
2019-04-30T07:26:41.750Z,10.10
2019-04-30T07:27:41.891Z,10.26
2019-04-30T07:29:44.331Z,10.40
2019-04-30T07:30:42.545Z,10.37
2019-04-30T07:31:43.667Z,10.37
2019-04-30T07:32:42.905Z,10.33
2019-04-30T07:33:43.084Z,10.34
2019-04-30T07:34:43.276Z,10.36
2019-04-30T07:35:43.413Z,10.25
2019-04-30T07:36:49.133Z,10.26
2019-04-30T07:37:45.685Z,10.10
2019-04-30T07:38:51.890Z,10.22
2019-04-30T07:39:46.675Z,10.24
2019-04-30T07:40:44.138Z,10.21
2019-04-30T07:41:44.682Z,10.30
2019-04-30T07:42:44.971Z,10.33
2019-04-30T07:43:45.694Z,10.44
2019-04-30T07:44:44.799Z,10.44
2019-04-30T07:45:45.671Z,10.53
2019-04-30T07:46:45.439Z,10.55
2019-04-30T07:47:46.309Z,10.55
2019-04-30T07:48:45.680Z,10.52
2019-04-30T07:49:51.831Z,10.47
2019-04-30T07:50:51.487Z,10.47
2019-04-30T07:51:46.847Z,10.44
2019-04-30T07:53:01.047Z,10.39
2019-04-30T07:53:49.635Z,10.36
2019-04-30T07:54:46.660Z,10.36
2019-04-30T07:55:49.385Z,10.32
2019-04-30T07:56:47.048Z,10.44
2019-04-30T07:57:50.117Z,10.42
2019-04-30T07:58:47.388Z,10.51
2019-04-30T07:59:49.701Z,10.51
2019-04-30T08:00:50.341Z,10.60
2019-04-30T08:02:03.251Z,10.73
2019-04-30T08:02:50.437Z,10.83
2019-04-30T08:03:50.244Z,10.86
2019-04-30T08:04:51.131Z,10.99
2019-04-30T08:05:50.012Z,11.17
2019-04-30T08:06:50.032Z,11.44
2019-04-30T08:07:49.960Z,11.53
2019-04-30T08:08:50.759Z,11.83
2019-04-30T08:09:34.156Z,10.40
2019-04-30T08:09:50.250Z,11.77
2019-04-30T08:10:50.999Z,11.59
2019-04-30T08:11:49.659Z,11.38
2019-04-30T08:12:50.852Z,11.14
2019-04-30T08:13:51.710Z,11.14
2019-04-30T08:14:50.303Z,11.10
2019-04-30T08:15:50.418Z,11.09
2019-04-30T08:17:12.181Z,11.02
2019-04-30T08:18:02.842Z,11.07
2019-04-30T08:18:51.966Z,11.07
2019-04-30T08:19:51.195Z,11.20
2019-04-30T08:20:51.691Z,11.32
2019-04-30T08:21:52.181Z,11.34
2019-04-30T08:22:52.692Z,11.28
2019-04-30T08:23:51.897Z,11.21
2019-04-30T08:24:52.024Z,11.29
2019-04-30T08:25:52.698Z,11.47
2019-04-30T08:26:52.431Z,11.61
2019-04-30T08:27:52.655Z,11.89
2019-04-30T08:28:53.676Z,12.09
2019-04-30T08:29:53.023Z,12.31
2019-04-30T08:30:53.165Z,12.20
2019-04-30T08:31:53.287Z,12.15
2019-04-30T08:32:53.415Z,12.09
2019-04-30T08:33:53.654Z,12.31
2019-04-30T08:34:53.770Z,12.37
2019-04-30T08:35:53.915Z,12.49
2019-04-30T08:36:54.860Z,12.49
2019-04-30T08:37:54.267Z,12.26
2019-04-30T08:38:55.196Z,11.96
2019-04-30T08:39:55.177Z,11.96
2019-04-30T08:40:58.297Z,11.99
2019-04-30T08:41:56.011Z,12.33
2019-04-30T08:42:55.186Z,12.70
2019-04-30T08:43:55.409Z,12.78
2019-04-30T08:44:55.680Z,12.99
2019-04-30T08:45:56.685Z,13.20
2019-04-30T08:46:56.191Z,13.20
2019-04-30T08:47:56.678Z,13.15
2019-04-30T08:48:56.275Z,12.71
2019-04-30T08:49:56.580Z,12.71
2019-04-30T08:50:56.693Z,12.97
2019-04-30T08:51:58.575Z,13.41
2019-04-30T08:52:56.949Z,13.40
2019-04-30T08:53:58.703Z,12.79
2019-04-30T08:55:10.786Z,12.59
2019-04-30T08:55:59.147Z,12.81
2019-04-30T08:56:59.415Z,13.40
2019-04-30T08:58:09.325Z,13.56
2019-04-30T08:59:00.042Z,13.69
2019-04-30T09:00:00.188Z,13.58
2019-04-30T09:00:58.848Z,13.32
2019-04-30T09:02:12.560Z,14.16
2019-04-30T09:02:59.731Z,14.52
2019-04-30T09:03:59.969Z,14.80
2019-04-30T09:05:00.516Z,14.50
2019-04-30T09:05:59.702Z,13.79
2019-04-30T09:06:59.965Z,13.55
2019-04-30T09:08:00.632Z,13.61
2019-04-30T09:09:00.681Z,13.61
2019-04-30T09:10:01.288Z,13.47
2019-04-30T09:11:01.249Z,13.46
2019-04-30T09:12:00.450Z,13.46
2019-04-30T09:13:00.724Z,13.40
2019-04-30T09:14:00.873Z,13.83
2019-04-30T09:15:00.996Z,14.20
2019-04-30T09:16:01.123Z,14.50
2019-04-30T09:17:01.380Z,14.49
2019-04-30T09:18:05.999Z,14.83
2019-04-30T09:19:04.191Z,14.86
2019-04-30T09:20:01.930Z,14.64
2019-04-30T09:21:06.244Z,14.38
2019-04-30T09:22:03.354Z,14.10
2019-04-30T09:23:02.580Z,14.21
2019-04-30T09:24:02.711Z,14.14
2019-04-30T09:25:02.870Z,14.07
2019-04-30T09:26:04.017Z,13.94
2019-04-30T09:27:03.275Z,13.61
2019-04-30T09:28:04.534Z,13.71
2019-04-30T09:29:04.704Z,13.71
2019-04-30T09:30:03.822Z,13.73
2019-04-30T09:31:03.970Z,13.96
2019-04-30T09:32:04.101Z,14.20
2019-04-30T09:33:04.254Z,14.38
2019-04-30T09:34:14.291Z,14.86
2019-04-30T09:35:05.609Z,14.83
2019-04-30T09:36:04.846Z,14.78
2019-04-30T09:37:05.711Z,14.83
2019-04-30T09:38:05.215Z,15.12
2019-04-30T09:39:05.357Z,15.54
2019-04-30T09:40:15.303Z,15.78
2019-04-30T09:41:09.273Z,15.56
2019-04-30T09:42:05.896Z,15.30
2019-04-30T09:43:06.006Z,14.86
2019-04-30T09:44:07.215Z,14.32
2019-04-30T09:45:06.490Z,13.96
2019-04-30T09:46:19.061Z,14.10
2019-04-30T09:47:08.988Z,13.77
2019-04-30T09:48:09.388Z,13.77
2019-04-30T09:49:09.625Z,13.96
2019-04-30T09:50:09.131Z,14.06
2019-04-30T09:51:10.232Z,14.12
2019-04-30T09:52:09.229Z,14.14
2019-04-30T09:53:10.029Z,14.42
2019-04-30T09:54:12.735Z,14.29
2019-04-30T09:55:09.599Z,14.21
2019-04-30T09:56:09.555Z,14.43
2019-04-30T09:57:11.494Z,14.46
2019-04-30T09:58:17.032Z,14.67
2019-04-30T09:59:11.121Z,14.86
2019-04-30T10:00:09.488Z,15.06
2019-04-30T10:01:11.105Z,15.13
2019-04-30T10:02:09.667Z,15.20
2019-04-30T10:03:11.035Z,15.26
2019-04-30T10:04:11.591Z,15.43
2019-04-30T10:05:10.963Z,15.81
2019-04-30T10:06:10.731Z,15.92
2019-04-30T10:07:10.489Z,15.70
2019-04-30T10:08:10.657Z,15.46
2019-04-30T10:09:10.791Z,15.43
2019-04-30T10:10:11.496Z,15.31
2019-04-30T10:11:12.168Z,15.43
2019-04-30T10:12:11.311Z,15.52
2019-04-30T10:13:11.460Z,15.82
2019-04-30T10:14:11.604Z,15.97
2019-04-30T10:15:11.781Z,16.16
2019-04-30T10:16:11.928Z,16.23
2019-04-30T10:17:12.113Z,16.25
2019-04-30T10:18:12.274Z,15.75
2019-04-30T10:19:14.883Z,15.36
2019-04-30T10:20:12.646Z,14.90
2019-04-30T10:21:12.882Z,14.46
2019-04-30T10:22:13.022Z,14.24
2019-04-30T10:23:13.177Z,14.04
2019-04-30T10:24:15.681Z,14.39
2019-04-30T10:25:14.529Z,15.02
2019-04-30T10:26:14.223Z,15.15
2019-04-30T10:27:13.911Z,15.59
2019-04-30T10:28:14.017Z,15.13
2019-04-30T10:29:14.286Z,15.35
2019-04-30T10:30:14.534Z,15.51
2019-04-30T10:31:14.639Z,15.54
2019-04-30T10:32:14.869Z,15.88
2019-04-30T10:33:15.095Z,16.07
2019-04-30T10:34:16.342Z,16.04
2019-04-30T10:35:15.574Z,15.49
2019-04-30T10:36:15.737Z,15.15
2019-04-30T10:37:15.868Z,15.03
2019-04-30T10:38:15.995Z,14.90
2019-04-30T10:39:16.139Z,14.90
2019-04-30T10:40:16.278Z,15.08
2019-04-30T10:41:18.286Z,15.24
2019-04-30T10:42:16.646Z,15.19
2019-04-30T10:43:16.780Z,15.39
2019-04-30T10:44:18.695Z,15.46
2019-04-30T10:45:18.596Z,15.85
2019-04-30T10:46:17.229Z,16.11
2019-04-30T10:47:19.263Z,16.18
2019-04-30T10:48:17.576Z,16.07
2019-04-30T10:49:19.220Z,16.03
2019-04-30T10:50:17.902Z,16.16
2019-04-30T10:51:18.929Z,16.31
2019-04-30T10:52:19.342Z,16.33
2019-04-30T10:53:19.439Z,16.12
2019-04-30T10:54:26.085Z,15.63
2019-04-30T10:55:21.723Z,15.39
2019-04-30T10:56:19.338Z,15.23
2019-04-30T10:57:20.258Z,15.41
2019-04-30T10:58:19.376Z,15.72
2019-04-30T10:59:19.479Z,15.97
2019-04-30T11:00:19.622Z,16.30
2019-04-30T11:01:19.746Z,16.58
2019-04-30T11:02:19.892Z,16.73
2019-04-30T11:03:22.932Z,16.86
2019-04-30T11:04:21.173Z,16.71
2019-04-30T11:05:21.114Z,16.70
2019-04-30T11:06:21.604Z,16.70
2019-04-30T11:07:20.829Z,16.35
2019-04-30T11:08:20.984Z,16.23
2019-04-30T11:09:21.123Z,16.16
2019-04-30T11:10:21.239Z,16.20
2019-04-30T11:11:21.476Z,16.14
2019-04-30T11:12:21.614Z,16.18
2019-04-30T11:13:21.743Z,16.14
2019-04-30T11:14:21.901Z,16.06
2019-04-30T11:15:22.016Z,16.01
2019-04-30T11:16:22.160Z,16.06
2019-04-30T11:17:22.366Z,16.15
2019-04-30T11:18:22.703Z,15.99
2019-04-30T11:19:22.900Z,15.84
2019-04-30T11:20:23.010Z,15.76
2019-04-30T11:21:23.148Z,16.00
2019-04-30T11:22:23.300Z,16.25
2019-04-30T11:23:23.501Z,16.41
2019-04-30T11:24:35.800Z,16.30
2019-04-30T11:25:25.210Z,16.44
2019-04-30T11:26:24.339Z,16.31
2019-04-30T11:27:25.625Z,15.99
2019-04-30T11:28:24.728Z,15.94
2019-04-30T11:29:24.584Z,16.06
2019-04-30T11:30:24.956Z,15.92
2019-04-30T11:31:25.981Z,15.96
2019-04-30T11:32:25.124Z,16.03
2019-04-30T11:33:25.829Z,16.04
2019-04-30T11:34:28.046Z,16.20
2019-04-30T11:35:25.494Z,15.99
2019-04-30T11:36:25.733Z,15.96
2019-04-30T11:37:25.866Z,15.84
2019-04-30T11:38:26.113Z,15.76
2019-04-30T11:39:26.750Z,15.79
2019-04-30T11:40:34.439Z,15.86
2019-04-30T11:41:31.012Z,15.85
2019-04-30T11:42:28.861Z,15.66
2019-04-30T11:43:27.082Z,15.57
2019-04-30T11:44:31.326Z,15.33
2019-04-30T11:45:29.400Z,15.26
2019-04-30T11:46:28.818Z,15.43
2019-04-30T11:47:28.842Z,15.42
2019-04-30T11:48:28.930Z,15.56
2019-04-30T11:49:29.743Z,15.64
2019-04-30T11:50:30.142Z,15.68
2019-04-30T11:51:29.513Z,15.86
2019-04-30T11:52:29.682Z,15.99
2019-04-30T11:53:30.706Z,16.18
2019-04-30T11:54:30.126Z,16.38
2019-04-30T11:55:29.769Z,16.03
2019-04-30T11:56:29.485Z,15.67
2019-04-30T11:57:30.620Z,15.54
2019-04-30T11:58:30.582Z,15.92
2019-04-30T11:59:31.045Z,16.31
2019-04-30T12:00:30.743Z,16.62
2019-04-30T12:01:31.251Z,17.06
2019-04-30T12:02:30.729Z,17.13
2019-04-30T12:03:30.862Z,17.25
2019-04-30T12:04:30.995Z,17.48
2019-04-30T12:05:31.147Z,17.33
2019-04-30T12:06:31.292Z,17.11
2019-04-30T12:07:32.241Z,17.06
2019-04-30T12:08:31.568Z,17.28
2019-04-30T12:09:31.685Z,17.41
2019-04-30T12:10:31.837Z,17.33
2019-04-30T12:11:31.971Z,17.14
2019-04-30T12:12:32.104Z,16.96
2019-04-30T12:13:32.247Z,16.53
2019-04-30T12:14:33.274Z,16.16
2019-04-30T12:15:32.504Z,16.07
2019-04-30T12:16:33.751Z,16.15
2019-04-30T12:17:33.796Z,16.20
2019-04-30T12:18:33.744Z,16.41
2019-04-30T12:19:33.257Z,16.62
2019-04-30T12:20:33.639Z,16.53
2019-04-30T12:21:34.617Z,16.25
2019-04-30T12:22:33.702Z,16.03
2019-04-30T12:23:34.745Z,16.07
2019-04-30T12:24:33.977Z,16.20
2019-04-30T12:25:34.190Z,16.53
2019-04-30T12:26:34.297Z,16.25
2019-04-30T12:27:34.437Z,15.74
2019-04-30T12:28:35.241Z,15.45
2019-04-30T12:29:35.253Z,15.23
2019-04-30T12:30:34.862Z,15.27
2019-04-30T12:31:35.085Z,15.20
2019-04-30T12:32:35.386Z,15.49
2019-04-30T12:33:37.268Z,15.61
2019-04-30T12:34:35.700Z,15.81
2019-04-30T12:35:35.909Z,16.00
2019-04-30T12:36:36.122Z,15.97
2019-04-30T12:37:39.057Z,15.81
2019-04-30T12:38:37.604Z,16.00
2019-04-30T12:39:36.800Z,16.33
2019-04-30T12:40:38.914Z,16.33
2019-04-30T12:41:38.988Z,16.22
2019-04-30T12:42:38.442Z,16.26
2019-04-30T12:44:10.956Z,16.14
2019-04-30T12:44:39.875Z,16.15
2019-04-30T12:45:39.780Z,16.25
2019-04-30T12:46:38.710Z,16.31
2019-04-30T12:47:39.379Z,16.25
2019-04-30T12:48:39.735Z,16.44
2019-04-30T12:49:39.810Z,16.48
2019-04-30T12:50:39.247Z,16.37
2019-04-30T12:51:46.080Z,16.33
2019-04-30T12:52:41.381Z,16.62
2019-04-30T12:53:39.588Z,16.80
2019-04-30T12:54:40.681Z,16.88
2019-04-30T12:55:39.869Z,17.03
2019-04-30T12:56:39.988Z,16.98
2019-04-30T12:57:40.225Z,16.77
2019-04-30T12:58:40.487Z,16.48
2019-04-30T12:59:40.606Z,16.20
2019-04-30T13:00:40.844Z,16.06
2019-04-30T13:01:41.070Z,16.11
2019-04-30T13:02:41.342Z,16.31
2019-04-30T13:03:42.282Z,16.50
2019-04-30T13:04:41.794Z,16.62
2019-04-30T13:05:42.120Z,16.52
2019-04-30T13:06:42.441Z,16.68
2019-04-30T13:07:43.300Z,16.56
2019-04-30T13:08:43.095Z,16.48